createdAt,value
2018-06-18T08:23:11.512Z,6368.00
2018-06-18T08:24:13.062Z,6420.00
2018-06-18T08:25:11.146Z,6388.00
2018-06-18T08:26:10.939Z,6264.00
2018-06-18T08:27:14.855Z,6064.00
2018-06-18T08:28:11.057Z,6128.00
2018-06-18T08:29:13.170Z,6368.00
2018-06-18T08:30:12.435Z,6528.00
2018-06-18T08:31:10.972Z,6644.00
2018-06-18T08:32:11.063Z,6840.00
2018-06-18T08:33:11.681Z,7044.00
2018-06-18T08:34:11.087Z,7368.00
2018-06-18T08:35:12.112Z,7884.00
2018-06-18T08:36:11.096Z,8412.00
2018-06-18T08:37:10.973Z,8644.00
2018-06-18T08:38:12.023Z,10656.00
2018-06-18T08:39:11.056Z,12700.00
2018-06-18T08:40:11.036Z,15104.00
2018-06-18T08:41:11.981Z,18048.00
2018-06-18T08:42:11.984Z,20160.00
2018-06-18T08:43:11.588Z,24160.00
2018-06-18T08:44:11.046Z,22688.00
2018-06-18T08:45:11.916Z,18688.00
2018-06-18T08:46:11.229Z,18784.00
2018-06-18T08:47:10.966Z,18944.00
2018-06-18T08:48:11.000Z,17376.00
2018-06-18T08:49:11.722Z,17408.00
2018-06-18T08:50:11.084Z,24128.00
2018-06-18T08:51:11.698Z,70528.00
2018-06-18T08:52:11.025Z,49216.00
2018-06-18T08:53:15.044Z,25376.00
2018-06-18T08:54:11.024Z,18176.00
2018-06-18T08:55:25.870Z,8632.00
2018-06-18T08:57:32.993Z,6560.00
2018-06-18T08:58:11.143Z,7596.00
2018-06-18T08:59:11.128Z,11008.00
2018-06-18T09:00:11.612Z,10048.00
2018-06-18T09:01:12.330Z,6568.00
2018-06-18T09:02:11.103Z,7196.00
2018-06-18T09:03:11.962Z,7200.00
2018-06-18T09:04:11.901Z,8048.00
2018-06-18T09:05:12.197Z,16508.00
2018-06-18T09:06:11.103Z,46432.00
2018-06-18T09:07:11.047Z,24160.00
2018-06-18T09:08:11.118Z,55232.00
2018-06-18T09:09:14.197Z,12560.00
2018-06-18T09:10:15.122Z,20736.00
2018-06-18T09:11:12.296Z,53696.00
2018-06-18T09:12:11.162Z,24544.00
2018-06-18T09:13:11.198Z,48800.00
2018-06-18T09:14:11.226Z,23136.00
2018-06-18T09:15:11.168Z,60864.00
2018-06-18T09:16:11.325Z,27648.00
2018-06-18T09:17:11.908Z,19008.00
2018-06-18T09:18:15.924Z,16020.00
2018-06-18T09:19:11.220Z,11080.00
2018-06-18T09:20:11.853Z,8972.00
2018-06-18T09:21:29.567Z,7020.00
2018-06-18T09:22:11.535Z,6148.00
2018-06-18T09:23:11.596Z,4496.00
2018-06-18T09:24:13.670Z,4904.00
2018-06-18T09:25:16.078Z,5528.00
2018-06-18T09:26:13.419Z,4968.00
2018-06-18T09:27:13.622Z,4404.00
2018-06-18T09:28:11.278Z,4244.00
2018-06-18T09:29:11.283Z,3696.00
2018-06-18T09:30:11.313Z,3480.00
2018-06-18T09:31:13.139Z,3196.00
2018-06-18T09:32:12.634Z,3168.00
2018-06-18T09:33:12.136Z,3124.00
2018-06-18T09:34:11.352Z,3280.00
2018-06-18T09:35:11.725Z,3940.00
2018-06-18T09:36:12.537Z,4744.00
2018-06-18T09:37:14.669Z,5852.00
2018-06-18T09:38:11.934Z,6916.00
2018-06-18T09:39:11.775Z,11236.00
2018-06-18T09:40:13.146Z,14636.00
2018-06-18T09:41:14.265Z,14276.00
2018-06-18T09:42:12.163Z,11244.00
2018-06-18T09:43:11.927Z,9676.00
2018-06-18T09:44:11.929Z,9416.00
2018-06-18T09:45:11.402Z,8060.00
2018-06-18T09:46:14.109Z,6996.00
2018-06-18T09:47:11.325Z,5636.00
2018-06-18T09:48:11.827Z,5536.00
2018-06-18T09:49:11.650Z,4644.00
2018-06-18T09:50:11.352Z,4168.00
2018-06-18T09:51:11.372Z,3724.00
2018-06-18T09:52:11.436Z,3132.00
2018-06-18T09:53:12.081Z,2700.00
2018-06-18T09:54:11.364Z,3004.00
2018-06-18T09:55:11.412Z,3080.00
2018-06-18T09:56:11.405Z,2984.00
2018-06-18T09:57:11.534Z,2872.00
2018-06-18T09:58:13.846Z,3156.00
2018-06-18T09:59:13.256Z,4684.00
2018-06-18T10:00:12.206Z,7476.00
2018-06-18T10:01:12.411Z,10960.00
2018-06-18T10:02:11.482Z,22944.00
2018-06-18T10:03:11.643Z,24224.00
2018-06-18T10:04:11.479Z,27040.00
2018-06-18T10:05:11.408Z,26752.00
2018-06-18T10:06:11.929Z,22304.00
2018-06-18T10:07:13.786Z,14988.00
2018-06-18T10:08:11.544Z,10652.00
2018-06-18T10:09:11.560Z,8460.00
2018-06-18T10:10:11.566Z,7008.00
2018-06-18T10:11:11.494Z,6812.00
2018-06-18T10:12:11.518Z,6948.00
2018-06-18T10:13:11.496Z,5692.00
2018-06-18T10:14:11.473Z,4352.00
2018-06-18T10:15:11.567Z,4836.00
2018-06-18T10:16:11.491Z,5872.00
2018-06-18T10:17:11.532Z,5572.00
2018-06-18T10:18:11.690Z,3464.00
2018-06-18T10:19:11.588Z,2760.00
2018-06-18T10:20:12.084Z,3656.00
2018-06-18T10:21:11.652Z,3932.00
2018-06-18T10:22:11.512Z,3572.00
2018-06-18T10:23:11.572Z,3180.00
2018-06-18T10:24:11.759Z,3188.00
2018-06-18T10:25:11.588Z,3716.00
2018-06-18T10:26:11.546Z,4128.00
2018-06-18T10:27:11.510Z,4088.00
2018-06-18T10:28:11.592Z,4828.00
2018-06-18T10:29:12.948Z,5156.00
2018-06-18T10:30:11.602Z,5380.00
2018-06-18T10:31:12.786Z,5592.00
2018-06-18T10:32:11.886Z,4948.00
2018-06-18T10:33:11.648Z,5000.00
2018-06-18T10:34:11.659Z,7000.00
2018-06-18T10:35:11.586Z,7508.00
2018-06-18T10:36:11.587Z,7492.00
2018-06-18T10:37:11.738Z,8052.00
2018-06-18T10:38:11.667Z,8720.00
2018-06-18T10:39:12.337Z,7628.00
2018-06-18T10:40:11.642Z,10672.00
2018-06-18T10:41:11.727Z,12660.00
2018-06-18T10:42:11.762Z,11752.00
2018-06-18T10:43:11.673Z,10756.00
2018-06-18T10:44:11.640Z,10324.00
2018-06-18T10:45:11.700Z,10544.00
2018-06-18T10:46:11.657Z,10404.00
2018-06-18T10:47:11.738Z,9308.00
2018-06-18T10:48:11.669Z,9276.00
2018-06-18T10:49:11.667Z,8356.00
2018-06-18T10:50:11.681Z,8652.00
2018-06-18T10:51:11.723Z,11584.00
2018-06-18T10:52:11.663Z,9532.00
2018-06-18T10:53:11.675Z,7704.00
2018-06-18T10:54:11.642Z,5844.00
2018-06-18T10:55:11.879Z,4480.00
2018-06-18T10:56:11.669Z,4164.00
2018-06-18T10:57:11.705Z,4000.00
2018-06-18T10:58:11.715Z,3448.00
2018-06-18T10:59:11.673Z,2932.00
2018-06-18T11:00:12.565Z,2948.00
2018-06-18T11:01:11.690Z,3024.00
2018-06-18T11:02:11.910Z,3016.00
2018-06-18T11:03:11.690Z,3144.00
2018-06-18T11:04:11.732Z,3712.00
2018-06-18T11:05:11.743Z,4252.00
2018-06-18T11:06:11.697Z,4548.00
2018-06-18T11:07:11.707Z,4320.00
2018-06-18T11:08:11.800Z,5088.00
2018-06-18T11:09:11.716Z,5948.00
2018-06-18T11:10:11.760Z,5816.00
2018-06-18T11:11:11.767Z,5956.00
2018-06-18T11:12:11.789Z,7744.00
2018-06-18T11:13:11.757Z,8996.00
2018-06-18T11:14:11.773Z,10588.00
2018-06-18T11:15:11.738Z,8976.00
2018-06-18T11:16:11.850Z,7708.00
2018-06-18T11:17:12.037Z,6924.00
2018-06-18T11:18:11.831Z,8540.00
2018-06-18T11:19:11.802Z,8016.00
2018-06-18T11:20:11.807Z,7300.00
2018-06-18T11:21:11.811Z,6840.00
2018-06-18T11:22:11.891Z,8080.00
2018-06-18T11:23:11.920Z,6672.00
2018-06-18T11:24:11.812Z,6916.00
2018-06-18T11:26:11.846Z,9848.00
2018-06-18T11:27:11.859Z,8056.00
2018-06-18T11:28:11.966Z,6588.00
2018-06-18T11:29:11.886Z,7068.00
2018-06-18T11:30:12.578Z,8712.00
2018-06-18T11:31:11.922Z,10468.00
2018-06-18T11:32:11.899Z,11380.00
2018-06-18T11:33:11.886Z,12020.00
2018-06-18T11:34:11.923Z,13240.00
2018-06-18T11:35:11.957Z,10676.00
2018-06-18T11:36:11.896Z,8156.00
2018-06-18T11:37:11.918Z,8420.00
2018-06-18T11:38:12.132Z,10024.00
2018-06-18T11:39:11.944Z,10384.00
2018-06-18T11:40:11.925Z,10824.00
2018-06-18T11:41:12.077Z,8796.00
2018-06-18T11:42:11.941Z,7984.00
2018-06-18T11:43:11.932Z,9248.00
2018-06-18T11:44:11.949Z,9864.00
2018-06-18T11:45:12.078Z,9032.00
2018-06-18T11:46:11.895Z,9524.00
2018-06-18T11:47:11.993Z,7308.00
2018-06-18T11:48:12.605Z,5924.00
2018-06-18T11:49:12.062Z,5776.00
2018-06-18T11:50:12.067Z,5552.00
2018-06-18T11:51:12.003Z,5580.00
2018-06-18T11:52:12.587Z,4660.00
2018-06-18T11:53:11.975Z,4228.00
2018-06-18T11:54:12.064Z,4304.00
2018-06-18T11:55:12.042Z,4244.00
2018-06-18T11:56:12.523Z,4400.00
2018-06-18T11:57:12.763Z,4660.00
2018-06-18T11:58:12.436Z,4232.00
2018-06-18T11:59:12.264Z,4004.00
2018-06-18T12:00:12.179Z,3956.00
2018-06-18T12:01:12.142Z,4860.00
2018-06-18T12:02:12.090Z,5036.00
2018-06-18T12:03:12.142Z,4480.00
2018-06-18T12:04:13.592Z,4080.00
2018-06-18T12:05:12.062Z,4360.00
2018-06-18T12:06:12.082Z,5660.00
2018-06-18T12:07:13.344Z,6848.00
2018-06-18T12:08:12.043Z,6700.00
2018-06-18T12:09:12.048Z,6992.00
2018-06-18T12:10:12.116Z,6244.00
2018-06-18T12:11:12.271Z,5924.00
2018-06-18T12:12:12.235Z,5796.00
2018-06-18T12:13:12.149Z,5664.00
2018-06-18T12:14:12.070Z,6388.00
2018-06-18T12:15:12.602Z,6440.00
2018-06-18T12:16:12.108Z,7244.00
2018-06-18T12:17:12.187Z,5324.00
2018-06-18T12:18:12.110Z,3972.00
2018-06-18T12:19:12.121Z,4032.00
2018-06-18T12:20:12.136Z,3780.00
2018-06-18T12:21:12.172Z,3936.00
2018-06-18T12:22:12.115Z,4992.00
2018-06-18T12:23:12.119Z,6248.00
2018-06-18T12:24:12.091Z,6932.00
2018-06-18T12:25:12.169Z,7440.00
2018-06-18T12:26:12.145Z,7796.00
2018-06-18T12:27:12.119Z,7288.00
2018-06-18T12:28:12.120Z,7740.00
2018-06-18T12:29:50.309Z,7976.00
2018-06-18T12:30:49.689Z,6744.00
2018-06-18T12:31:49.776Z,6148.00
2018-06-18T12:32:49.758Z,5416.00
2018-06-18T12:33:49.843Z,5332.00
2018-06-18T12:34:49.723Z,5200.00
2018-06-18T12:35:49.719Z,5372.00
2018-06-18T12:36:49.763Z,4416.00
2018-06-18T12:37:49.779Z,4920.00
2018-06-18T12:38:49.799Z,5024.00
2018-06-18T12:39:49.840Z,4248.00
2018-06-18T12:40:49.846Z,4048.00
2018-06-18T12:41:49.787Z,3852.00
2018-06-18T12:42:49.779Z,3800.00
2018-06-18T12:43:49.797Z,3808.00
2018-06-18T12:44:49.822Z,5260.00
2018-06-18T12:45:49.878Z,7876.00
2018-06-18T12:46:49.874Z,7432.00
2018-06-18T12:47:49.821Z,7192.00
2018-06-18T12:48:49.824Z,6552.00
2018-06-18T12:49:49.829Z,5780.00
2018-06-18T12:50:49.798Z,6336.00
2018-06-18T12:51:49.992Z,7516.00
2018-06-18T12:52:49.849Z,8500.00
2018-06-18T12:53:49.809Z,7632.00
2018-06-18T12:54:49.889Z,6296.00
2018-06-18T12:55:49.823Z,6812.00
2018-06-18T12:56:49.900Z,6488.00
2018-06-18T12:57:49.833Z,5136.00
2018-06-18T12:58:49.906Z,4356.00
2018-06-18T12:59:50.290Z,4192.00
2018-06-18T13:00:49.879Z,3824.00
2018-06-18T13:01:49.887Z,3204.00
2018-06-18T13:02:50.090Z,2884.00
2018-06-18T13:03:49.902Z,3388.00
2018-06-18T13:04:51.073Z,4372.00
2018-06-18T13:05:49.963Z,4612.00
2018-06-18T13:06:49.897Z,4600.00
2018-06-18T13:07:49.908Z,4304.00
2018-06-18T13:08:49.960Z,4420.00
2018-06-18T13:09:49.917Z,4236.00
2018-06-18T13:10:50.567Z,6176.00
2018-06-18T13:11:50.022Z,5736.00
2018-06-18T13:12:49.995Z,5292.00
2018-06-18T13:13:50.198Z,4780.00
2018-06-18T13:14:50.114Z,5888.00
2018-06-18T13:15:50.090Z,5756.00
2018-06-18T13:16:52.776Z,6540.00
2018-06-18T13:17:50.080Z,5936.00
2018-06-18T13:18:50.093Z,4284.00
2018-06-18T13:19:50.392Z,3672.00
2018-06-18T13:20:50.092Z,5496.00
2018-06-18T13:21:49.989Z,5640.00
2018-06-18T13:22:50.215Z,5768.00
2018-06-18T13:23:49.997Z,7368.00
2018-06-18T13:24:50.427Z,7476.00
2018-06-18T13:25:50.123Z,7988.00
2018-06-18T13:26:50.490Z,10936.00
2018-06-18T13:27:50.806Z,12980.00
2018-06-18T13:28:50.622Z,12508.00
2018-06-18T13:29:50.246Z,9744.00
2018-06-18T13:30:50.434Z,7776.00
2018-06-18T13:31:50.272Z,7052.00
2018-06-18T13:32:51.348Z,5468.00
2018-06-18T13:33:50.161Z,5008.00
2018-06-18T13:34:50.178Z,4924.00
2018-06-18T13:35:50.177Z,4396.00
2018-06-18T13:36:50.057Z,4252.00
2018-06-18T13:37:50.209Z,4252.00
2018-06-18T13:38:50.178Z,4348.00
2018-06-18T13:39:50.150Z,3400.00
2018-06-18T13:40:50.136Z,3016.00
2018-06-18T13:41:50.195Z,3700.00
2018-06-18T13:42:50.161Z,4452.00
2018-06-18T13:43:50.328Z,4504.00
2018-06-18T13:44:50.391Z,4168.00
2018-06-18T13:45:50.369Z,3736.00
2018-06-18T13:46:50.589Z,4248.00
2018-06-18T13:47:50.359Z,4580.00
2018-06-18T13:48:50.835Z,4168.00
2018-06-18T13:49:50.588Z,4560.00
2018-06-18T13:50:50.590Z,4760.00
2018-06-18T13:51:50.324Z,4368.00
2018-06-18T13:52:50.374Z,4084.00
2018-06-18T13:53:50.130Z,4192.00
2018-06-18T13:54:50.232Z,4472.00
2018-06-18T13:55:50.200Z,4816.00
2018-06-18T13:56:50.601Z,5280.00
2018-06-18T13:57:50.153Z,5284.00
2018-06-18T13:58:50.125Z,4352.00
2018-06-18T13:59:50.189Z,3684.00
2018-06-18T14:00:50.107Z,3392.00
2018-06-18T14:01:50.124Z,3084.00
2018-06-18T14:02:50.293Z,3072.00
2018-06-18T14:03:50.408Z,3264.00
2018-06-18T14:04:50.151Z,3992.00
2018-06-18T14:05:50.517Z,4632.00
2018-06-18T14:06:50.133Z,5528.00
2018-06-18T14:07:50.214Z,7188.00
2018-06-18T14:08:50.227Z,8560.00
2018-06-18T14:09:50.403Z,7720.00
2018-06-18T14:10:50.158Z,7700.00
2018-06-18T14:11:50.172Z,7704.00
2018-06-18T14:12:50.204Z,7516.00
2018-06-18T14:13:50.267Z,6876.00
2018-06-18T14:14:50.246Z,6212.00
2018-06-18T14:15:50.231Z,6104.00
2018-06-18T14:16:50.271Z,5912.00
2018-06-18T14:17:51.321Z,4812.00
2018-06-18T14:18:50.337Z,3792.00
2018-06-18T14:19:50.312Z,3604.00
2018-06-18T14:20:50.304Z,3848.00
2018-06-18T14:21:50.247Z,3772.00
2018-06-18T14:22:50.239Z,3868.00
2018-06-18T14:23:50.365Z,4124.00
2018-06-18T14:24:50.255Z,4120.00
2018-06-18T14:25:50.264Z,4716.00
2018-06-18T14:26:50.295Z,5360.00
2018-06-18T14:27:50.272Z,5164.00
2018-06-18T14:28:50.309Z,5136.00
2018-06-18T14:29:50.376Z,4400.00
2018-06-18T14:30:50.468Z,4796.00
2018-06-18T14:31:50.485Z,4960.00
2018-06-18T14:32:50.676Z,4660.00
2018-06-18T14:33:50.332Z,5108.00
2018-06-18T14:34:50.306Z,5360.00
2018-06-18T14:35:50.289Z,5716.00
2018-06-18T14:36:50.426Z,5888.00
2018-06-18T14:37:51.109Z,6360.00
2018-06-18T14:38:50.338Z,7140.00
2018-06-18T14:39:50.495Z,6780.00
2018-06-18T14:40:51.222Z,5612.00
2018-06-18T14:41:50.455Z,5308.00
2018-06-18T14:42:51.373Z,4944.00
2018-06-18T14:43:50.694Z,3848.00
2018-06-18T14:44:51.110Z,2704.00
2018-06-18T14:45:51.161Z,3264.00
2018-06-18T14:46:50.513Z,3304.00
2018-06-18T14:47:50.375Z,4300.00
2018-06-18T14:48:50.475Z,5268.00
2018-06-18T14:49:50.336Z,6796.00
2018-06-18T14:50:51.118Z,7144.00
2018-06-18T14:51:50.435Z,7560.00
2018-06-18T14:52:50.477Z,5808.00
2018-06-18T14:53:50.871Z,4216.00
2018-06-18T14:54:50.703Z,4144.00
2018-06-18T14:55:51.133Z,3868.00
2018-06-18T14:56:50.784Z,3756.00
2018-06-18T14:57:51.139Z,4104.00
2018-06-18T14:58:51.469Z,3728.00
2018-06-18T14:59:50.410Z,2508.00
2018-06-18T15:00:50.775Z,2140.00
2018-06-18T15:01:50.388Z,1756.00
2018-06-18T15:02:50.389Z,1288.00
2018-06-18T15:03:50.522Z,1076.00
2018-06-18T15:04:50.410Z,1376.00
2018-06-18T15:05:50.427Z,2004.00
2018-06-18T15:06:50.387Z,2020.00
2018-06-18T15:07:50.430Z,2248.00
2018-06-18T15:08:50.461Z,2140.00
2018-06-18T15:09:50.390Z,1832.00
2018-06-18T15:10:50.678Z,1320.00
2018-06-18T15:11:50.464Z,1284.00
2018-06-18T15:12:50.524Z,1564.00
2018-06-18T15:13:50.506Z,2172.00
2018-06-18T15:14:50.809Z,3164.00
2018-06-18T15:15:50.668Z,3940.00
2018-06-18T15:16:50.560Z,3916.00
2018-06-18T15:17:50.552Z,3964.00
2018-06-18T15:18:50.497Z,4384.00
2018-06-18T15:19:50.480Z,4552.00
2018-06-18T15:20:51.087Z,4372.00
2018-06-18T15:21:50.738Z,3856.00
2018-06-18T15:22:51.457Z,3580.00
2018-06-18T15:23:51.594Z,3660.00
2018-06-18T15:24:50.572Z,3900.00
2018-06-18T15:25:50.871Z,4648.00
2018-06-18T15:26:51.756Z,5128.00
2018-06-18T15:27:50.838Z,6016.00
2018-06-18T15:28:51.670Z,7924.00
2018-06-18T15:29:50.492Z,6628.00
2018-06-18T15:30:50.522Z,5396.00
2018-06-18T15:31:50.492Z,5692.00
2018-06-18T15:32:51.182Z,7156.00
2018-06-18T15:33:50.498Z,7880.00
2018-06-18T15:34:50.602Z,6308.00
2018-06-18T15:35:50.577Z,4768.00
2018-06-18T15:36:50.547Z,4604.00
2018-06-18T15:37:50.565Z,4804.00
2018-06-18T15:38:52.108Z,5120.00
2018-06-18T15:39:50.604Z,5140.00
2018-06-18T15:40:50.612Z,4868.00
2018-06-18T15:41:50.723Z,4408.00
2018-06-18T15:42:50.545Z,4816.00
2018-06-18T15:43:50.578Z,4992.00
2018-06-18T15:44:50.631Z,3692.00
2018-06-18T15:45:50.640Z,2372.00
2018-06-18T15:46:50.674Z,2224.00
2018-06-18T15:47:50.621Z,2640.00
2018-06-18T15:48:50.806Z,3632.00
2018-06-18T15:49:50.695Z,4132.00
2018-06-18T15:50:51.171Z,4340.00
2018-06-18T15:51:50.617Z,4448.00
2018-06-18T15:52:50.602Z,4736.00
2018-06-18T15:53:50.626Z,4848.00
2018-06-18T15:54:50.617Z,4836.00
2018-06-18T15:55:50.715Z,4484.00
2018-06-18T15:56:50.754Z,3828.00
2018-06-18T15:57:50.648Z,3188.00
2018-06-18T15:58:50.639Z,3192.00
2018-06-18T15:59:50.622Z,3032.00
2018-06-18T16:00:50.593Z,3472.00
2018-06-18T16:01:50.588Z,4176.00
2018-06-18T16:02:50.642Z,4732.00
2018-06-18T16:03:50.709Z,5168.00
2018-06-18T16:04:50.734Z,4796.00
2018-06-18T16:05:50.613Z,4500.00
2018-06-18T16:06:51.795Z,4432.00
2018-06-18T16:07:50.614Z,4084.00
2018-06-18T16:08:50.615Z,3516.00
2018-06-18T16:09:51.512Z,2788.00
2018-06-18T16:10:50.633Z,2256.00
2018-06-18T16:11:51.153Z,2060.00
2018-06-18T16:12:50.641Z,1848.00
2018-06-18T16:13:50.666Z,1944.00
2018-06-18T16:14:50.681Z,2180.00
2018-06-18T16:15:50.783Z,2528.00
2018-06-18T16:16:50.688Z,2500.00
2018-06-18T16:17:50.838Z,2112.00
2018-06-18T16:18:50.677Z,1828.00
2018-06-18T16:19:50.878Z,1400.00
2018-06-18T16:20:50.700Z,1008.00
2018-06-18T16:21:50.701Z,688.00
2018-06-18T16:22:50.706Z,632.00
2018-06-18T16:23:50.699Z,780.00
2018-06-18T16:24:50.689Z,816.00
2018-06-18T16:25:50.724Z,828.00
2018-06-18T16:26:50.693Z,964.00
2018-06-18T16:27:50.688Z,1088.00
2018-06-18T16:28:50.688Z,1508.00
2018-06-18T16:29:50.721Z,2212.00
2018-06-18T16:30:50.712Z,3272.00
2018-06-18T16:31:50.774Z,3940.00
2018-06-18T16:32:50.795Z,4364.00
2018-06-18T16:33:50.832Z,4636.00
2018-06-18T16:34:50.727Z,4900.00
2018-06-18T16:35:50.746Z,4736.00
2018-06-18T16:36:50.737Z,4640.00
2018-06-18T16:37:50.760Z,4672.00
2018-06-18T16:38:50.822Z,4528.00
2018-06-18T16:39:50.744Z,4428.00
2018-06-18T16:40:50.782Z,4276.00
2018-06-18T16:41:50.739Z,4052.00
2018-06-18T16:42:50.775Z,3716.00
2018-06-18T16:43:50.758Z,3720.00
2018-06-18T16:44:50.782Z,3804.00
2018-06-18T16:45:50.815Z,3828.00
2018-06-18T16:46:51.665Z,3692.00
2018-06-18T16:47:50.901Z,3528.00
2018-06-18T16:48:50.791Z,3640.00
2018-06-18T16:49:50.823Z,3512.00
2018-06-18T16:50:50.793Z,3192.00
2018-06-18T16:51:50.822Z,3008.00
2018-06-18T16:52:50.878Z,2772.00
2018-06-18T16:53:50.837Z,2388.00
2018-06-18T16:54:50.803Z,2216.00
2018-06-18T16:55:50.801Z,2112.00
2018-06-18T16:56:50.859Z,2260.00
2018-06-18T16:57:50.849Z,2164.00
2018-06-18T16:58:50.856Z,2140.00
2018-06-18T16:59:50.830Z,2208.00
2018-06-18T17:00:50.839Z,2556.00
2018-06-18T17:01:50.852Z,2996.00
2018-06-18T17:02:50.890Z,2568.00
2018-06-18T17:03:50.835Z,2140.00
2018-06-18T17:04:50.892Z,2024.00
2018-06-18T17:05:50.875Z,2448.00
2018-06-18T17:06:50.887Z,2500.00
2018-06-18T17:07:50.863Z,2264.00
2018-06-18T17:08:50.863Z,1920.00
2018-06-18T17:09:50.860Z,1916.00
2018-06-18T17:10:50.929Z,2212.00
2018-06-18T17:11:50.871Z,2536.00
2018-06-18T17:12:50.945Z,2852.00
2018-06-18T17:13:50.946Z,2908.00
2018-06-18T17:14:50.924Z,2948.00
2018-06-18T17:15:51.679Z,2972.00
2018-06-18T17:16:50.935Z,2924.00
2018-06-18T17:17:50.939Z,2796.00
2018-06-18T17:18:50.907Z,2644.00
2018-06-18T17:19:50.932Z,2860.00
2018-06-18T17:20:51.015Z,2908.00
2018-06-18T17:21:50.930Z,3228.00
2018-06-18T17:22:50.945Z,3800.00
2018-06-18T17:23:50.935Z,4672.00
2018-06-18T17:24:50.939Z,4300.00
2018-06-18T17:25:50.944Z,3436.00
2018-06-18T17:26:50.927Z,2668.00
2018-06-18T17:27:50.956Z,2288.00
2018-06-18T17:28:50.964Z,2080.00
2018-06-18T17:29:50.974Z,2000.00
2018-06-18T17:30:50.930Z,1948.00
2018-06-18T17:31:51.079Z,1596.00
2018-06-18T17:32:51.001Z,1592.00
2018-06-18T17:33:50.988Z,1652.00
2018-06-18T17:34:51.006Z,1932.00
2018-06-18T17:35:51.040Z,2100.00
2018-06-18T17:36:51.010Z,2348.00
2018-06-18T17:37:51.031Z,2812.00
2018-06-18T17:38:50.964Z,2956.00
2018-06-18T17:39:50.981Z,2752.00
2018-06-18T17:40:50.974Z,2444.00
2018-06-18T17:41:51.043Z,2396.00
2018-06-18T17:42:50.984Z,2488.00
2018-06-18T17:43:51.059Z,2812.00
2018-06-18T17:44:51.026Z,3532.00
2018-06-18T17:45:51.069Z,3556.00
2018-06-18T17:46:51.054Z,3232.00
2018-06-18T17:47:51.093Z,2836.00
2018-06-18T17:48:51.036Z,2332.00
2018-06-18T17:49:51.109Z,2068.00
2018-06-18T17:50:51.041Z,1948.00
2018-06-18T17:51:51.074Z,1788.00
2018-06-18T17:52:51.058Z,1672.00
2018-06-18T17:53:51.081Z,1596.00
2018-06-18T17:54:51.059Z,1524.00
2018-06-18T17:55:51.118Z,1424.00
2018-06-18T17:56:51.072Z,1436.00
2018-06-18T17:57:51.089Z,1576.00
2018-06-18T17:58:51.090Z,1724.00
2018-06-18T17:59:51.111Z,1892.00
2018-06-18T18:00:51.041Z,2228.00
2018-06-18T18:01:51.133Z,2220.00
2018-06-18T18:02:51.100Z,2080.00
2018-06-18T18:03:51.701Z,2268.00
2018-06-18T18:04:51.062Z,2396.00
2018-06-18T18:05:51.066Z,2152.00
2018-06-18T18:06:51.077Z,1872.00
2018-06-18T18:07:51.193Z,1640.00
2018-06-18T18:08:51.067Z,1532.00
2018-06-18T18:09:51.074Z,1472.00
2018-06-18T18:10:51.089Z,1440.00
2018-06-18T18:11:51.118Z,1440.00
2018-06-18T18:12:51.102Z,1396.00
2018-06-18T18:13:51.124Z,1336.00
2018-06-18T18:14:51.117Z,1336.00
2018-06-18T18:15:51.201Z,1500.00
2018-06-18T18:16:51.135Z,1692.00
2018-06-18T18:17:51.168Z,1512.00
2018-06-18T18:18:51.157Z,1340.00
2018-06-18T18:19:51.116Z,1160.00
2018-06-18T18:20:51.157Z,1108.00
2018-06-18T18:21:51.144Z,1188.00
2018-06-18T18:22:51.162Z,1120.00
2018-06-18T18:23:51.122Z,1152.00
2018-06-18T18:24:51.150Z,1236.00
2018-06-18T18:25:51.173Z,1296.00
2018-06-18T18:26:51.134Z,1248.00
2018-06-18T18:27:51.140Z,1240.00
2018-06-18T18:28:51.140Z,1260.00
2018-06-18T18:29:51.170Z,1224.00
2018-06-18T18:30:51.157Z,1124.00
2018-06-18T18:31:51.196Z,1084.00
2018-06-18T18:32:51.165Z,1072.00
2018-06-18T18:33:51.212Z,1044.00
2018-06-18T18:34:51.258Z,1004.00
2018-06-18T18:35:51.199Z,988.00
2018-06-18T18:36:51.182Z,1100.00
2018-06-18T18:37:51.186Z,1068.00
2018-06-18T18:38:51.175Z,940.00
2018-06-18T18:39:51.187Z,928.00
2018-06-18T18:40:51.195Z,880.00
2018-06-18T18:41:51.208Z,740.00
2018-06-18T18:42:51.219Z,588.00
2018-06-18T18:43:51.716Z,524.00
2018-06-18T18:44:51.247Z,520.00
2018-06-18T18:45:51.222Z,656.00
2018-06-18T18:46:51.333Z,768.00
2018-06-18T18:47:51.236Z,760.00
2018-06-18T18:48:51.244Z,720.00
2018-06-18T18:49:51.246Z,576.00
2018-06-18T18:50:51.248Z,552.00
2018-06-18T18:51:51.239Z,580.00
2018-06-18T18:52:51.244Z,600.00
2018-06-18T18:53:51.246Z,632.00
2018-06-18T18:54:51.284Z,640.00
2018-06-18T18:55:51.300Z,616.00
2018-06-18T18:56:51.286Z,628.00
2018-06-18T18:57:51.246Z,660.00
2018-06-18T18:58:51.249Z,716.00
2018-06-18T18:59:51.289Z,688.00
2018-06-18T19:00:51.322Z,680.00
2018-06-18T19:01:52.220Z,624.00
2018-06-18T19:02:51.336Z,684.00
2018-06-18T19:03:51.284Z,696.00
2018-06-18T19:04:51.262Z,708.00
2018-06-18T19:05:51.271Z,792.00
2018-06-18T19:06:51.283Z,644.00
2018-06-18T19:07:51.304Z,540.00
2018-06-18T19:08:51.320Z,428.00
2018-06-18T19:09:51.357Z,360.00
2018-06-18T19:10:51.288Z,260.00
2018-06-18T19:11:51.480Z,204.00
2018-06-18T19:12:51.328Z,176.00
2018-06-18T19:13:51.313Z,168.00
2018-06-18T19:14:51.325Z,172.00
2018-06-18T19:15:51.317Z,192.00
2018-06-18T19:16:51.307Z,236.00
2018-06-18T19:17:51.340Z,284.00
2018-06-18T19:18:51.318Z,360.00
2018-06-18T19:19:51.346Z,400.00
2018-06-18T19:20:51.345Z,408.00
2018-06-18T19:21:51.362Z,396.00
2018-06-18T19:22:51.330Z,364.00
2018-06-18T19:23:51.366Z,376.00
2018-06-18T19:24:51.347Z,364.00
2018-06-18T19:25:51.338Z,364.00
2018-06-18T19:26:51.339Z,360.00
2018-06-18T19:27:51.353Z,352.00
2018-06-18T19:28:51.347Z,344.00
2018-06-18T19:29:51.371Z,336.00
2018-06-18T19:30:51.363Z,328.00
2018-06-18T19:31:51.367Z,316.00
2018-06-18T19:32:51.365Z,308.00
2018-06-18T19:33:51.375Z,296.00
2018-06-18T19:34:51.385Z,284.00
2018-06-18T19:35:51.380Z,272.00
2018-06-18T19:36:51.391Z,264.00
2018-06-18T19:37:51.400Z,248.00
2018-06-18T19:38:51.404Z,236.00
2018-06-18T19:39:51.403Z,224.00
2018-06-18T19:40:51.395Z,216.00
2018-06-18T19:41:51.423Z,200.00
2018-06-18T19:42:51.430Z,192.00
2018-06-18T19:43:51.412Z,180.00
2018-06-18T19:44:51.418Z,168.00
2018-06-18T19:45:51.448Z,160.00
2018-06-18T19:46:51.431Z,152.00
2018-06-18T19:47:51.416Z,144.00
2018-06-18T19:48:51.417Z,132.00
2018-06-18T19:49:51.418Z,124.00
2018-06-18T19:50:51.424Z,112.00
2018-06-18T19:51:51.422Z,100.00
2018-06-18T19:52:51.420Z,92.00
2018-06-18T19:53:51.450Z,88.00
2018-06-18T19:54:51.447Z,80.00
2018-06-18T19:55:51.449Z,72.00
2018-06-18T19:56:51.447Z,72.00
2018-06-18T19:57:51.500Z,68.00
2018-06-18T19:58:51.453Z,64.00
2018-06-18T19:59:51.545Z,52.00
2018-06-18T20:00:51.944Z,52.00
2018-06-18T20:01:51.501Z,44.00
2018-06-18T20:02:51.466Z,44.00
2018-06-18T20:03:51.511Z,36.00
2018-06-18T20:04:51.480Z,36.00
2018-06-18T20:05:51.566Z,32.00
2018-06-18T20:06:51.485Z,28.00
2018-06-18T20:07:51.497Z,28.00
2018-06-18T20:08:51.504Z,20.00
2018-06-18T20:09:51.523Z,20.00
2018-06-18T20:10:51.541Z,20.00
2018-06-18T20:11:51.560Z,16.00
2018-06-18T20:12:51.523Z,16.00
2018-06-18T20:13:51.602Z,12.00
2018-06-18T20:14:51.543Z,12.00
2018-06-18T20:15:51.589Z,12.00
2018-06-18T20:16:51.592Z,8.00
2018-06-18T20:17:52.395Z,8.00
2018-06-18T20:18:51.795Z,8.00
2018-06-18T20:19:51.644Z,8.00
2018-06-18T20:20:51.589Z,4.00
2018-06-18T20:21:51.807Z,4.00
2018-06-18T20:22:51.507Z,4.00
2018-06-18T20:23:51.515Z,4.00
2018-06-18T20:24:51.516Z,4.00
2018-06-18T20:25:51.537Z,4.00
2018-06-18T20:26:51.538Z,0.00
2018-06-18T20:27:51.547Z,4.00
2018-06-18T20:28:51.531Z,4.00
2018-06-18T20:29:51.572Z,4.00
2018-06-18T20:30:51.587Z,0.00
2018-06-18T20:31:51.581Z,0.00
2018-06-18T20:32:51.678Z,0.00
2018-06-18T20:33:51.548Z,0.00
2018-06-18T20:34:51.614Z,0.00